ダブリン の空港の天気 - METARとTAF

ダブリン空港 ( EIDW / DUB ) - アイルランド ダブリン
飛行場実況気象(Metar)
観測時間02/17 14:30 IST (02/17 14:30 UTC)
風向・風速南南西 8m/s 瞬間風速13m/s
視程10km以上
天気現象
少しの雲 雲底高度 790m
気温11℃
湿度58%
気圧1004hPa
METAREIDW 171430Z 21016G26KT 170V240 9999 FEW026 11/03 Q1004 NOSIG
過去の天気等 Google飛行場航空写真 Wunderground天気予報

過去48時間のMETAR

飛行場予報(TAF)
発表時間: 2/17 11:00 IST (2/17 11:00 UTC)
予報対象時間: 17日12時 IST ~ 18日12時 IST
風向・風速南南西 6m/s
視程10km以上
少しの雲 雲底高度 610m
全天の4割程度の雲 雲底高度 1220m
17日12時 IST ~ 18日2時 IST に一時的に
風向・風速南西 9m/s 瞬間風速 15m/s
17日12時 IST ~ 17日21時 IST に 確率 40% で一時的に
天気現象弱いしゅう雨
全天の4割程度の積乱雲 雲底高度 550m
17日17時 IST ~ 18日1時 IST に 確率 40% で一時的に
風向・風速南西 10m/s 瞬間風速 18m/s
18日10時 IST ~ 18日12時 IST に徐々に
風向・風速西南西 8m/s
TAF EIDW 171100Z 1712/1812 20012KT 9999 FEW020 SCT040
TEMPO 1712/1802 22018G30KT
PROB40 TEMPO 1712/1721 -SHRA SCT018CB
PROB40 TEMPO 1717/1801 22020G35KT
BECMG 1810/1812 24015KT